Time;durP1;ratioP1;P1;durP2;ratioP2;P2;SDS_P1;SDS_P2;PMS_P1;PMS_P2;Temp;Humidity;BMP_temperature;BMP_pressure;BME280_temperature;BME280_humidity;BME280_pressure;Samples;Min_cycle;Max_cycle;Signal;HPM_P1;HPM_P2
2022/01/26 00:06:06;;;;;;;48.60;27.30;;;1.60;1.00;;;;;;5140870;27;20481;-55
2022/01/26 00:08:33;;;;;;;48.53;26.17;;;1.70;1.00;;;;;;5147453;27;20894;-57
2022/01/26 00:11:00;;;;;;;45.80;26.10;;;1.70;1.00;;;;;;5140743;27;20716;-54
2022/01/26 00:13:29;;;;;;;54.17;29.70;;;1.70;1.00;;;;;;5140965;27;20465;-52
2022/01/26 00:15:57;;;;;;;50.07;27.67;;;1.70;1.00;;;;;;5140493;27;20498;-54
2022/01/26 00:18:29;;;;;;;52.13;27.77;;;1.60;1.00;;;;;;5140832;27;20465;-57
2022/01/26 00:21:05;;;;;;;46.97;28.07;;;1.70;1.00;;;;;;5120773;28;20459;-57
2022/01/26 00:23:51;;;;;;;47.37;26.50;;;1.80;1.00;;;;;;5120850;28;20922;-52
2022/01/26 00:26:27;;;;;;;46.10;27.17;;;1.80;1.00;;;;;;5135067;27;20527;-55
2022/01/26 00:29:09;;;;;;;45.70;27.17;;;1.70;99.90;;;;;;5141173;27;20758;-54
2022/01/26 00:40:04;;;;;;;48.03;27.93;;;1.80;99.90;;;;;;5140387;27;20546;-57
2022/01/26 00:42:36;;;;;;;52.90;29.30;;;1.80;99.90;;;;;;5140677;27;20463;-58
2022/01/26 00:45:09;;;;;;;48.60;27.10;;;1.80;1.00;;;;;;5141170;27;20498;-57
2022/01/26 00:47:36;;;;;;;52.50;28.40;;;1.80;1.00;;;;;;5139829;27;20459;-55
2022/01/26 00:50:07;;;;;;;59.90;32.07;;;1.80;1.00;;;;;;5139915;27;20501;-56
2022/01/26 00:52:40;;;;;;;58.00;32.20;;;1.90;1.00;;;;;;5140461;27;20761;-54
2022/01/26 00:55:14;;;;;;;70.67;34.33;;;1.90;1.00;;;;;;5141017;27;20875;-55
2022/01/26 00:57:44;;;;;;;65.40;35.47;;;1.90;1.00;;;;;;5140070;27;20460;-57
2022/01/26 01:00:16;;;;;;;63.83;35.37;;;1.90;1.00;;;;;;5140364;27;20486;-51
2022/01/26 01:02:46;;;;;;;67.13;34.90;;;1.90;99.90;;;;;;5119932;28;20986;-56
2022/01/26 01:05:19;;;;;;;62.93;35.80;;;2.00;99.90;;;;;;5120056;28;20466;-53
2022/01/26 01:07:52;;;;;;;72.90;37.80;;;1.90;99.90;;;;;;5119166;27;20897;-55
2022/01/26 01:10:25;;;;;;;60.30;33.80;;;1.90;99.90;;;;;;5119553;28;20502;-57
2022/01/26 01:12:56;;;;;;;60.87;32.00;;;1.90;99.90;;;;;;5137910;27;20458;-57
2022/01/26 01:15:28;;;;;;;64.70;34.43;;;2.00;99.90;;;;;;5140742;27;20761;-57
2022/01/26 01:18:05;;;;;;;62.60;34.73;;;1.90;99.90;;;;;;5139577;27;20501;-57
2022/01/26 01:20:51;;;;;;;62.87;34.37;;;1.90;99.90;;;;;;5140162;27;20462;-57
2022/01/26 01:23:46;;;;;;;67.57;34.53;;;1.90;99.90;;;;;;5139930;27;20540;-57
2022/01/26 01:29:16;;;;;;;72.83;34.70;;;2.00;99.90;;;;;;5122765;27;20541;-56
2022/01/26 01:31:50;;;;;;;69.97;36.17;;;2.10;99.90;;;;;;5139887;27;20552;-56
2022/01/26 01:34:21;;;;;;;64.43;32.27;;;2.00;99.90;;;;;;5139448;27;20531;-55
2022/01/26 01:36:50;;;;;;;66.90;34.33;;;2.00;99.90;;;;;;5125865;27;20487;-57
2022/01/26 01:39:18;;;;;;;57.37;32.30;;;2.00;99.90;;;;;;5140009;27;20743;-56
2022/01/26 01:41:47;;;;;;;62.17;32.93;;;2.10;99.90;;;;;;5139301;27;20488;-56
2022/01/26 01:44:16;;;;;;;53.47;30.17;;;2.10;99.90;;;;;;5139634;27;20518;-56
2022/01/26 01:46:45;;;;;;;63.87;32.40;;;2.10;99.90;;;;;;5139327;27;20458;-56
2022/01/26 01:49:14;;;;;;;57.03;32.20;;;2.00;99.90;;;;;;5139335;27;20465;-57
2022/01/26 01:51:47;;;;;;;61.27;33.57;;;1.90;99.90;;;;;;5139057;27;20433;-56
2022/01/26 01:54:16;;;;;;;66.83;34.53;;;2.00;99.90;;;;;;5139606;27;20610;-56
2022/01/26 01:56:44;;;;;;;62.13;33.00;;;2.00;99.90;;;;;;5139417;27;20454;-56
2022/01/26 01:59:11;;;;;;;65.73;34.37;;;2.00;99.90;;;;;;5138981;27;20463;-57
2022/01/26 02:01:38;;;;;;;57.17;32.53;;;2.10;99.90;;;;;;5138961;27;20494;-54
2022/01/26 02:04:07;;;;;;;55.00;30.50;;;2.10;99.90;;;;;;5138858;27;20526;-57
2022/01/26 02:06:37;;;;;;;56.50;32.67;;;2.10;99.90;;;;;;5139392;27;20530;-55
2022/01/26 02:09:06;;;;;;;62.50;32.17;;;2.10;99.90;;;;;;5138229;27;20459;-56
2022/01/26 02:11:33;;;;;;;51.40;29.63;;;2.10;99.90;;;;;;5139193;27;20458;-56
2022/01/26 02:14:04;;;;;;;59.47;33.27;;;2.10;99.90;;;;;;5138688;27;20486;-53
2022/01/26 02:16:39;;;;;;;60.70;33.50;;;2.10;99.90;;;;;;5139141;27;20463;-55
2022/01/26 02:19:48;;;;;;;62.43;33.30;;;2.10;99.90;;;;;;5139135;27;20572;-54
2022/01/26 02:50:10;;;;;;;64.53;33.80;;;2.10;99.90;;;;;;5096840;28;20458;-55
2022/01/26 02:52:50;;;;;;;61.77;32.20;;;2.00;99.90;;;;;;5097701;28;20473;-55
2022/01/26 02:55:34;;;;;;;63.67;32.00;;;2.00;99.90;;;;;;5098248;28;20885;-57
2022/01/26 02:58:32;;;;;;;56.70;30.13;;;2.00;99.90;;;;;;5098195;28;20937;-55
2022/01/26 03:01:15;;;;;;;67.23;31.90;;;2.00;99.90;;;;;;5077249;28;20416;-57
2022/01/26 03:03:48;;;;;;;62.20;31.07;;;2.00;99.90;;;;;;5085209;28;20558;-55
2022/01/26 03:06:21;;;;;;;62.27;30.50;;;1.90;99.90;;;;;;5098013;28;20496;-51
2022/01/26 03:08:53;;;;;;;58.53;31.10;;;1.90;99.90;;;;;;5084663;28;20469;-55
2022/01/26 03:11:27;;;;;;;64.63;33.93;;;1.90;99.90;;;;;;5077463;28;20846;-56
2022/01/26 03:14:03;;;;;;;67.90;34.30;;;1.90;99.90;;;;;;5082830;28;20779;-53
2022/01/26 03:16:35;;;;;;;66.30;33.73;;;1.90;99.90;;;;;;5097570;28;20914;-55
2022/01/26 03:19:15;;;;;;;72.60;36.00;;;1.80;99.90;;;;;;5096882;28;20468;-54
2022/01/26 03:21:51;;;;;;;73.77;36.40;;;1.90;99.90;;;;;;5096814;28;20506;-51
2022/01/26 03:30:19;;;;;;;64.57;33.90;;;2.00;99.90;;;;;;5096525;28;20477;-55
2022/01/26 03:33:11;;;;;;;58.83;32.83;;;1.90;99.90;;;;;;5097719;28;20464;-57
2022/01/26 03:35:44;;;;;;;59.93;31.67;;;1.90;99.90;;;;;;5128408;27;20902;-56
2022/01/26 03:38:18;;;;;;;60.33;32.60;;;1.90;99.90;;;;;;5121728;28;20434;-57
2022/01/26 03:40:46;;;;;;;64.73;35.67;;;1.90;99.90;;;;;;5125774;27;20454;-57
2022/01/26 03:43:14;;;;;;;67.13;34.70;;;1.90;99.90;;;;;;5142437;27;20477;-56
2022/01/26 03:45:41;;;;;;;66.50;34.57;;;1.90;99.90;;;;;;5141788;27;20505;-54
2022/01/26 03:48:08;;;;;;;73.40;35.87;;;1.90;99.90;;;;;;5141911;27;20849;-55
2022/01/26 03:50:35;;;;;;;63.03;34.30;;;1.90;99.90;;;;;;5141531;27;20505;-55
2022/01/26 03:53:02;;;;;;;65.07;36.27;;;1.90;99.90;;;;;;5141476;27;20519;-57
2022/01/26 03:55:29;;;;;;;66.50;38.17;;;1.90;99.90;;;;;;5141416;27;20506;-52
2022/01/26 03:57:56;;;;;;;67.20;35.67;;;1.90;99.90;;;;;;5141909;27;20505;-56
2022/01/26 04:00:24;;;;;;;63.27;36.60;;;1.90;99.90;;;;;;5141406;27;20486;-50
2022/01/26 04:02:51;;;;;;;70.43;36.50;;;1.90;99.90;;;;;;5140171;27;20831;-55
2022/01/26 04:05:18;;;;;;;69.00;37.17;;;2.00;99.90;;;;;;5140382;27;20930;-55
2022/01/26 04:07:46;;;;;;;69.77;36.87;;;1.90;99.90;;;;;;5140717;27;20462;-53
2022/01/26 04:10:21;;;;;;;68.17;38.30;;;1.90;99.90;;;;;;5141033;27;20538;-51
2022/01/26 04:12:48;;;;;;;66.37;34.60;;;1.90;99.90;;;;;;5140644;27;20555;-52
2022/01/26 04:15:24;;;;;;;69.97;36.27;;;1.90;99.90;;;;;;5141156;27;20948;-50
2022/01/26 04:17:53;;;;;;;69.43;36.47;;;1.90;99.90;;;;;;5140792;27;20462;-52
2022/01/26 04:20:22;;;;;;;68.63;36.43;;;1.90;99.90;;;;;;5140943;27;20466;-53
2022/01/26 04:22:57;;;;;;;68.60;38.10;;;1.90;99.90;;;;;;5140493;27;20455;-57
2022/01/26 04:25:26;;;;;;;72.83;38.20;;;1.90;99.90;;;;;;5141047;27;20489;-55
2022/01/26 04:27:56;;;;;;;85.30;41.17;;;1.80;99.90;;;;;;5139829;27;20549;-52
2022/01/26 04:30:23;;;;;;;81.80;41.23;;;1.70;99.90;;;;;;5140781;27;20806;-54
2022/01/26 04:32:51;;;;;;;83.83;41.70;;;1.70;99.90;;;;;;5140755;27;20433;-57
2022/01/26 04:35:18;;;;;;;84.43;40.40;;;1.70;99.90;;;;;;5137787;27;20485;-51
2022/01/26 04:38:11;;;;;;;80.70;40.47;;;1.70;99.90;;;;;;5126086;27;20505;-51
2022/01/26 04:40:45;;;;;;;87.47;41.90;;;1.80;99.90;;;;;;5140775;27;20557;-52
2022/01/26 04:43:17;;;;;;;92.37;44.37;;;1.70;99.90;;;;;;5140127;27;21002;-54
2022/01/26 04:45:44;;;;;;;89.17;42.53;;;1.70;99.90;;;;;;5139989;27;20494;-54
2022/01/26 04:48:12;;;;;;;110.90;47.53;;;1.70;99.90;;;;;;5140230;27;20454;-54
2022/01/26 04:50:39;;;;;;;110.20;48.17;;;1.70;99.90;;;;;;5140305;27;20461;-54
2022/01/26 04:53:06;;;;;;;97.80;43.67;;;1.70;99.90;;;;;;5140919;27;20498;-54
2022/01/26 04:55:33;;;;;;;108.77;46.77;;;1.70;99.90;;;;;;5139344;27;20822;-53
2022/01/26 04:58:00;;;;;;;101.63;45.23;;;1.70;99.90;;;;;;5139731;27;20466;-54
2022/01/26 05:00:28;;;;;;;116.70;48.33;;;1.70;99.90;;;;;;5139743;27;20458;-57
2022/01/26 05:02:57;;;;;;;123.13;49.77;;;1.70;99.90;;;;;;5137808;27;20455;-54
2022/01/26 05:05:26;;;;;;;116.20;51.30;;;1.70;99.90;;;;;;5138827;27;20582;-55
2022/01/26 05:07:53;;;;;;;122.90;51.60;;;1.70;99.90;;;;;;5139835;27;20462;-56
2022/01/26 05:10:20;;;;;;;116.83;52.63;;;1.60;99.90;;;;;;5137494;27;20448;-57
2022/01/26 05:12:47;;;;;;;128.67;53.73;;;1.70;99.90;;;;;;5138501;27;20450;-55
2022/01/26 05:15:15;;;;;;;124.73;51.43;;;1.70;99.90;;;;;;5134764;27;20451;-50
2022/01/26 05:17:42;;;;;;;119.47;50.50;;;1.70;99.90;;;;;;5138203;27;20455;-50
2022/01/26 05:20:10;;;;;;;119.47;50.30;;;1.70;99.90;;;;;;5138791;27;20462;-54
2022/01/26 05:22:40;;;;;;;128.27;55.07;;;1.70;99.90;;;;;;5137932;27;20494;-52
2022/01/26 05:25:08;;;;;;;130.20;52.57;;;1.80;99.90;;;;;;5138923;27;20593;-55
2022/01/26 05:27:35;;;;;;;136.73;58.07;;;1.80;99.90;;;;;;5138484;27;20489;-55
2022/01/26 05:30:02;;;;;;;131.70;53.50;;;1.80;99.90;;;;;;5139282;27;20459;-54
2022/01/26 05:32:29;;;;;;;135.27;53.97;;;1.70;99.90;;;;;;5139385;27;20497;-54
2022/01/26 05:34:56;;;;;;;124.07;52.57;;;1.70;99.90;;;;;;5138945;27;20497;-51
2022/01/26 05:37:23;;;;;;;131.00;57.37;;;1.70;99.90;;;;;;5135958;27;20458;-54
2022/01/26 05:39:51;;;;;;;125.43;53.60;;;1.70;99.90;;;;;;5138800;27;20458;-52
2022/01/26 05:42:21;;;;;;;137.93;53.30;;;1.70;99.90;;;;;;5139525;27;20901;-55
2022/01/26 05:44:48;;;;;;;119.13;52.23;;;1.70;99.90;;;;;;5139326;27;20863;-53
2022/01/26 05:47:18;;;;;;;118.90;49.50;;;1.70;99.90;;;;;;5138813;27;20467;-49
2022/01/26 05:49:45;;;;;;;128.03;48.60;;;1.70;99.90;;;;;;5139052;27;20465;-51
2022/01/26 05:52:12;;;;;;;118.90;49.67;;;1.70;99.90;;;;;;5138993;27;20486;-55
2022/01/26 05:54:39;;;;;;;122.73;48.53;;;1.70;99.90;;;;;;5139172;27;20461;-52
2022/01/26 05:57:11;;;;;;;105.47;43.60;;;1.70;99.90;;;;;;5137744;27;20490;-56
2022/01/26 05:59:38;;;;;;;108.70;47.47;;;1.60;99.90;;;;;;5138889;27;20499;-54
2022/01/26 06:02:05;;;;;;;122.93;50.67;;;1.60;99.90;;;;;;5138701;27;20522;-55
2022/01/26 06:04:32;;;;;;;124.23;50.87;;;1.60;99.90;;;;;;5139155;27;20458;-49
2022/01/26 06:06:59;;;;;;;117.57;50.57;;;1.60;99.90;;;;;;5139066;27;20487;-55
2022/01/26 06:09:26;;;;;;;123.07;48.20;;;1.60;99.90;;;;;;5138765;27;20461;-52
2022/01/26 06:11:53;;;;;;;113.77;48.60;;;1.60;99.90;;;;;;5138859;27;20498;-53
2022/01/26 06:14:22;;;;;;;121.13;48.40;;;1.60;99.90;;;;;;5138723;27;20812;-53
2022/01/26 06:16:49;;;;;;;130.83;48.77;;;1.60;99.90;;;;;;5138275;27;20844;-52
2022/01/26 06:19:16;;;;;;;121.43;51.73;;;1.70;99.90;;;;;;5138185;27;20578;-52
2022/01/26 06:21:42;;;;;;;117.27;47.53;;;1.70;99.90;;;;;;5138408;27;20906;-54
2022/01/26 06:24:09;;;;;;;125.70;49.77;;;1.70;99.90;;;;;;5138288;27;20462;-54
2022/01/26 06:26:37;;;;;;;119.17;50.50;;;1.70;99.90;;;;;;5138830;27;20525;-53
2022/01/26 06:29:04;;;;;;;123.27;48.57;;;1.70;99.90;;;;;;5138685;27;20473;-54
2022/01/26 06:31:34;;;;;;;124.33;49.40;;;1.70;99.90;;;;;;5136124;27;20817;-58
2022/01/26 06:34:03;;;;;;;131.73;51.00;;;1.60;99.90;;;;;;5136339;27;20485;-59
2022/01/26 06:36:30;;;;;;;135.97;51.27;;;1.70;99.90;;;;;;5133499;27;20508;-58
2022/01/26 06:38:57;;;;;;;132.20;51.97;;;1.70;99.90;;;;;;5136971;27;20843;-59
2022/01/26 06:41:26;;;;;;;129.50;54.60;;;1.60;99.90;;;;;;5139356;27;20497;-57
2022/01/26 06:44:01;;;;;;;129.93;51.50;;;1.60;99.90;;;;;;5136611;27;20465;-57
2022/01/26 06:46:36;;;;;;;127.63;51.37;;;1.60;99.90;;;;;;5133166;27;20496;-60
2022/01/26 06:51:47;;;;;;;118.83;48.87;;;1.70;99.90;;;;;;5136465;27;20465;-59
2022/01/26 06:54:14;;;;;;;126.93;53.47;;;1.60;99.90;;;;;;5133971;28;20475;-57
2022/01/26 06:56:41;;;;;;;117.53;47.50;;;1.50;99.90;;;;;;5137227;28;20764;-59
2022/01/26 06:59:08;;;;;;;118.50;50.00;;;1.50;99.90;;;;;;5136538;27;20498;-58
2022/01/26 07:01:35;;;;;;;118.67;46.70;;;1.50;99.90;;;;;;5135752;28;20490;-59
2022/01/26 07:04:01;;;;;;;116.80;46.80;;;1.60;99.90;;;;;;5135959;28;20867;-58
2022/01/26 07:06:30;;;;;;;114.17;46.17;;;1.50;99.90;;;;;;5136737;28;20489;-58
2022/01/26 07:08:57;;;;;;;115.77;46.43;;;1.50;99.90;;;;;;5140317;27;20542;-57
2022/01/26 07:11:24;;;;;;;116.63;45.17;;;1.50;99.90;;;;;;5141300;27;20466;-60
2022/01/26 07:13:58;;;;;;;119.87;46.93;;;1.40;99.90;;;;;;5140432;27;20496;-60
2022/01/26 07:22:20;;;;;;;117.00;46.97;;;1.50;1.00;;;;;;5140198;27;20445;-59
2022/01/26 07:24:53;;;;;;;109.30;46.63;;;1.50;1.00;;;;;;5140757;27;20556;-59
2022/01/26 07:27:23;;;;;;;120.30;48.13;;;1.50;1.00;;;;;;5137014;27;20512;-56
2022/01/26 07:29:50;;;;;;;116.37;46.93;;;1.50;1.00;;;;;;5139581;27;20951;-59
2022/01/26 07:32:20;;;;;;;120.73;46.77;;;1.50;1.00;;;;;;5140314;27;20811;-56
2022/01/26 07:34:47;;;;;;;128.50;50.90;;;1.40;1.00;;;;;;5140632;27;20513;-59
2022/01/26 07:37:17;;;;;;;130.50;49.10;;;1.50;1.00;;;;;;5140629;27;20463;-59
2022/01/26 07:39:47;;;;;;;121.33;47.20;;;1.50;1.00;;;;;;5141090;27;20461;-54
2022/01/26 07:42:14;;;;;;;121.77;46.17;;;1.50;1.00;;;;;;5120182;28;20467;-56
2022/01/26 07:44:41;;;;;;;118.23;45.87;;;1.60;1.00;;;;;;5120709;28;20469;-58
2022/01/26 07:47:11;;;;;;;121.10;47.63;;;1.60;1.00;;;;;;5131916;27;20487;-57
2022/01/26 07:49:38;;;;;;;123.90;47.77;;;1.50;1.00;;;;;;5140714;27;20469;-54
2022/01/26 07:52:05;;;;;;;117.37;48.17;;;1.50;1.00;;;;;;5139920;27;20469;-58
2022/01/26 07:54:34;;;;;;;114.97;43.97;;;1.50;1.00;;;;;;5140852;27;20458;-57
2022/01/26 07:57:01;;;;;;;128.73;48.00;;;1.50;1.00;;;;;;5140671;27;20476;-57
2022/01/26 07:59:28;;;;;;;106.60;43.30;;;1.50;1.00;;;;;;5141066;27;20515;-54
2022/01/26 08:01:55;;;;;;;119.43;46.67;;;1.50;1.00;;;;;;5140393;27;20544;-53
2022/01/26 08:04:22;;;;;;;119.93;45.37;;;1.50;99.90;;;;;;5141123;27;20963;-60
2022/01/26 08:06:50;;;;;;;120.60;47.20;;;1.50;99.90;;;;;;5138769;27;20482;-57
2022/01/26 08:09:18;;;;;;;126.20;48.50;;;1.50;99.90;;;;;;5139895;27;20570;-60
2022/01/26 08:11:49;;;;;;;129.73;47.57;;;1.40;99.90;;;;;;5139237;27;20462;-59
2022/01/26 08:14:16;;;;;;;122.57;47.93;;;1.50;99.90;;;;;;5139871;27;20824;-57
2022/01/26 08:16:43;;;;;;;119.50;46.97;;;1.50;99.90;;;;;;5139379;27;20457;-56
2022/01/26 08:19:10;;;;;;;117.23;44.87;;;1.50;99.90;;;;;;5138966;27;20470;-55
2022/01/26 08:21:37;;;;;;;120.17;47.60;;;1.60;99.90;;;;;;5139575;27;20466;-51
2022/01/26 08:24:12;;;;;;;115.70;47.27;;;1.50;99.90;;;;;;5139308;27;20487;-58
2022/01/26 08:26:43;;;;;;;127.80;47.07;;;1.50;99.90;;;;;;5140553;27;20529;-58
2022/01/26 08:29:16;;;;;;;127.73;48.00;;;1.50;99.90;;;;;;5140623;27;20764;-54
2022/01/26 08:31:43;;;;;;;127.53;46.17;;;1.60;99.90;;;;;;5140225;27;20486;-58
2022/01/26 08:34:10;;;;;;;123.73;46.70;;;1.60;99.90;;;;;;5139735;27;20465;-55
2022/01/26 08:36:37;;;;;;;120.30;47.50;;;1.70;99.90;;;;;;5139249;27;20455;-55
2022/01/26 08:39:06;;;;;;;133.20;48.00;;;1.70;99.90;;;;;;5139694;27;20831;-54
2022/01/26 08:41:33;;;;;;;119.90;47.47;;;1.70;99.90;;;;;;5137923;27;20501;-58
2022/01/26 08:44:00;;;;;;;118.53;44.30;;;1.70;99.90;;;;;;5139093;27;20554;-57
2022/01/26 08:46:31;;;;;;;113.97;47.50;;;1.90;1.00;;;;;;5139302;27;20486;-58
2022/01/26 08:49:02;;;;;;;125.60;49.90;;;1.90;99.90;;;;;;5140544;27;20518;-58
2022/01/26 08:51:29;;;;;;;119.30;47.40;;;1.80;99.90;;;;;;5138517;27;20888;-59
2022/01/26 08:53:56;;;;;;;126.83;46.63;;;1.70;99.90;;;;;;5139658;27;20494;-57
2022/01/26 08:56:27;;;;;;;123.70;47.53;;;1.80;99.90;;;;;;5139887;27;20455;-57
2022/01/26 08:58:54;;;;;;;122.80;48.00;;;1.80;99.90;;;;;;5140649;27;20462;-59
2022/01/26 09:01:24;;;;;;;122.10;47.90;;;1.80;99.90;;;;;;5139201;27;20734;-56
2022/01/26 09:03:55;;;;;;;131.30;49.50;;;1.80;99.90;;;;;;5140094;27;20502;-57
2022/01/26 09:06:23;;;;;;;123.20;50.40;;;1.80;99.90;;;;;;5139432;27;20545;-57
2022/01/26 09:08:59;;;;;;;124.23;48.07;;;1.90;99.90;;;;;;5140606;27;20440;-59
2022/01/26 09:11:25;;;;;;;142.47;50.67;;;1.90;1.00;;;;;;5139290;27;20927;-56
2022/01/26 09:13:57;;;;;;;137.17;50.10;;;1.90;1.00;;;;;;5139915;27;20534;-57
2022/01/26 09:16:25;;;;;;;141.43;51.87;;;1.90;1.00;;;;;;5139927;27;20444;-56
2022/01/26 09:18:57;;;;;;;129.33;48.90;;;1.90;1.00;;;;;;5140000;27;20466;-58
2022/01/26 09:21:25;;;;;;;128.90;47.50;;;1.90;1.00;;;;;;5139530;27;20465;-59
2022/01/26 09:23:53;;;;;;;140.60;51.67;;;2.00;1.00;;;;;;5139077;27;20473;-59
2022/01/26 09:26:23;;;;;;;135.70;51.63;;;2.00;1.00;;;;;;5139354;27;20848;-60
2022/01/26 09:28:50;;;;;;;157.00;58.40;;;2.00;1.00;;;;;;5139841;27;20920;-59
2022/01/26 09:31:21;;;;;;;141.20;51.80;;;1.90;1.00;;;;;;5139493;27;20489;-57
2022/01/26 09:33:48;;;;;;;127.40;51.20;;;1.90;1.00;;;;;;5138000;27;20457;-58
2022/01/26 09:36:16;;;;;;;146.50;52.00;;;1.90;1.00;;;;;;5139219;27;20867;-56
2022/01/26 09:38:43;;;;;;;139.60;52.00;;;1.90;1.00;;;;;;5138984;27;20513;-58
2022/01/26 09:41:10;;;;;;;132.10;51.37;;;1.80;1.00;;;;;;5139128;27;20498;-60
2022/01/26 09:43:38;;;;;;;128.67;49.77;;;1.90;1.00;;;;;;5138805;27;20482;-58
2022/01/26 09:46:11;;;;;;;130.67;50.93;;;1.90;6.50;;;;;;5139310;27;20501;-57
2022/01/26 09:48:38;;;;;;;132.37;51.50;;;2.00;51.20;;;;;;5139261;27;20870;-58
2022/01/26 09:51:06;;;;;;;129.63;49.00;;;2.00;42.60;;;;;;5138623;27;20459;-58
2022/01/26 09:53:37;;;;;;;123.80;48.17;;;2.00;99.80;;;;;;5139190;27;20440;-58
2022/01/26 09:56:07;;;;;;;139.67;50.47;;;2.00;99.90;;;;;;5138226;27;20476;-59
2022/01/26 09:58:35;;;;;;;146.47;50.33;;;2.00;99.90;;;;;;5139176;27;20477;-58
2022/01/26 10:01:05;;;;;;;128.00;49.93;;;2.10;99.90;;;;;;5138628;27;20485;-59
2022/01/26 10:03:35;;;;;;;133.50;50.20;;;2.00;99.90;;;;;;5138870;27;20506;-57
2022/01/26 10:06:03;;;;;;;140.23;53.70;;;2.00;1.00;;;;;;5138744;27;20437;-58
2022/01/26 10:08:59;;;;;;;136.93;48.93;;;2.00;1.00;;;;;;5138746;27;20543;-57
2022/01/26 10:20:06;;;;;;;131.67;52.47;;;2.10;1.00;;;;;;5138710;27;20437;-60
2022/01/26 10:22:35;;;;;;;139.37;49.43;;;2.10;1.00;;;;;;5137874;27;20562;-59
2022/01/26 10:25:06;;;;;;;122.10;48.40;;;2.10;1.00;;;;;;5138001;27;20486;-60
2022/01/26 10:27:37;;;;;;;129.10;52.10;;;2.10;16.10;;;;;;5136380;27;20518;-59
2022/01/26 10:30:06;;;;;;;144.30;52.70;;;2.10;1.00;;;;;;5138030;27;20462;-58
2022/01/26 10:32:37;;;;;;;134.20;52.47;;;2.10;99.90;;;;;;5137844;27;20483;-59
2022/01/26 10:35:05;;;;;;;134.97;48.40;;;2.10;99.90;;;;;;5137329;27;20491;-59
2022/01/26 10:37:33;;;;;;;128.10;48.17;;;2.20;99.90;;;;;;5132026;27;20433;-59
2022/01/26 10:40:18;;;;;;;134.10;48.73;;;2.10;99.90;;;;;;5138418;27;20466;-59
2022/01/26 10:43:00;;;;;;;114.80;48.77;;;2.20;1.00;;;;;;5137317;27;20462;-59
2022/01/26 10:45:46;;;;;;;117.50;49.30;;;2.20;99.90;;;;;;5137661;27;20491;-60
2022/01/26 10:48:23;;;;;;;128.27;49.37;;;2.20;1.00;;;;;;5137100;27;20493;-58
2022/01/26 10:53:44;;;;;;;120.93;48.90;;;2.30;99.90;;;;;;5078826;27;20416;-59
2022/01/26 10:56:12;;;;;;;124.60;47.37;;;2.20;99.90;;;;;;5138682;27;20458;-58
2022/01/26 10:58:42;;;;;;;111.37;46.50;;;2.10;1.00;;;;;;5137994;28;20492;-57
2022/01/26 11:01:09;;;;;;;129.90;48.77;;;2.20;99.90;;;;;;5138142;27;20514;-60
2022/01/26 11:03:41;;;;;;;131.10;49.30;;;2.10;1.00;;;;;;5137342;28;20497;-58
2022/01/26 11:06:09;;;;;;;129.83;48.00;;;2.00;99.90;;;;;;5138027;27;20503;-57
2022/01/26 11:08:39;;;;;;;128.00;50.03;;;2.00;99.90;;;;;;5137214;27;20522;-59
2022/01/26 11:11:06;;;;;;;134.13;51.13;;;2.00;99.90;;;;;;5138526;28;20493;-56
2022/01/26 11:13:39;;;;;;;141.73;51.70;;;2.10;99.90;;;;;;5137529;28;20561;-59
2022/01/26 11:16:11;;;;;;;139.07;53.50;;;2.00;41.00;;;;;;5138110;28;20462;-59
2022/01/26 11:18:52;;;;;;;119.20;47.97;;;2.10;99.90;;;;;;5137891;27;20497;-59
2022/01/26 11:21:33;;;;;;;141.70;51.43;;;2.10;1.00;;;;;;5138405;28;20644;-58
2022/01/26 11:24:12;;;;;;;135.73;48.77;;;2.20;1.00;;;;;;5137157;28;20567;-59
2022/01/26 11:26:44;;;;;;;147.20;53.13;;;2.10;99.90;;;;;;5138055;28;20493;-57
2022/01/26 11:29:18;;;;;;;139.10;51.27;;;2.10;1.00;;;;;;5137208;28;20494;-58
2022/01/26 11:31:46;;;;;;;135.43;52.47;;;2.10;1.00;;;;;;5137499;27;20440;-60
2022/01/26 11:34:15;;;;;;;142.53;55.40;;;2.10;88.60;;;;;;5136953;27;20441;-57
2022/01/26 11:36:42;;;;;;;137.63;52.87;;;2.10;99.90;;;;;;5134911;28;20514;-56
2022/01/26 11:42:25;;;;;;;125.73;45.37;;;2.30;99.90;;;;;;5126147;28;20441;-58
2022/01/26 11:45:08;;;;;;;130.27;47.40;;;2.30;99.90;;;;;;5119584;28;20438;-60
2022/01/26 11:47:38;;;;;;;146.27;52.67;;;2.40;1.00;;;;;;5137835;28;20757;-60
2022/01/26 11:50:09;;;;;;;133.87;47.77;;;2.40;1.00;;;;;;5136976;28;20500;-60
2022/01/26 11:52:38;;;;;;;115.03;47.70;;;2.50;1.00;;;;;;5137854;28;20462;-60
2022/01/26 11:55:10;;;;;;;127.43;45.43;;;2.50;1.00;;;;;;5138911;27;20437;-59
2022/01/26 11:57:39;;;;;;;130.40;47.30;;;2.50;99.90;;;;;;5140445;27;20457;-58
2022/01/26 12:00:12;;;;;;;116.67;45.87;;;2.50;99.90;;;;;;5139706;27;20541;-60
2022/01/26 12:02:51;;;;;;;119.90;43.47;;;2.50;99.90;;;;;;5120429;28;20459;-60
2022/01/26 12:05:22;;;;;;;114.67;45.30;;;2.50;1.00;;;;;;5122534;27;20463;-60
2022/01/26 12:07:50;;;;;;;123.27;45.73;;;2.60;99.90;;;;;;5140577;27;20486;-60
2022/01/26 12:10:26;;;;;;;120.90;46.67;;;2.60;40.50;;;;;;5140769;27;20467;-60
2022/01/26 12:13:01;;;;;;;112.20;43.37;;;2.50;99.90;;;;;;5141121;27;20492;-60
2022/01/26 12:15:33;;;;;;;117.53;43.20;;;2.60;1.00;;;;;;5140825;27;20432;-59
2022/01/26 12:18:19;;;;;;;115.17;43.30;;;2.50;99.90;;;;;;5141078;27;20468;-58
2022/01/26 12:35:17;;;;;;;89.03;37.33;;;2.70;99.90;;;;;;5136524;27;20460;-59
2022/01/26 12:37:55;;;;;;;89.83;38.10;;;2.60;1.00;;;;;;5119832;28;20888;-57
2022/01/26 12:43:12;;;;;;;112.63;40.70;;;2.70;30.40;;;;;;5148730;27;20486;-58
2022/01/26 12:45:42;;;;;;;100.40;38.90;;;2.80;99.90;;;;;;5148424;27;20515;-56
2022/01/26 12:48:12;;;;;;;88.43;38.20;;;2.80;99.90;;;;;;5139952;27;20545;-59
2022/01/26 12:50:40;;;;;;;90.93;36.90;;;2.80;1.00;;;;;;5139676;27;20463;-56
2022/01/26 12:53:10;;;;;;;110.70;40.37;;;2.80;1.00;;;;;;5140106;27;20465;-58
2022/01/26 12:55:41;;;;;;;89.63;37.17;;;2.80;99.90;;;;;;5139354;27;20458;-60
2022/01/26 12:58:08;;;;;;;99.97;37.00;;;2.70;99.90;;;;;;5138446;27;20497;-55
2022/01/26 13:00:41;;;;;;;88.60;37.70;;;2.80;1.00;;;;;;5139163;27;20852;-58
2022/01/26 13:03:19;;;;;;;103.17;42.07;;;2.80;65.50;;;;;;5140120;27;20462;-58
2022/01/26 13:05:47;;;;;;;89.10;36.60;;;2.90;99.90;;;;;;5138965;27;20458;-58
2022/01/26 13:08:14;;;;;;;90.40;38.63;;;3.00;99.90;;;;;;5140108;27;20817;-59
2022/01/26 13:10:41;;;;;;;89.67;37.80;;;3.00;1.00;;;;;;5139234;27;20469;-59
2022/01/26 13:13:14;;;;;;;89.17;38.40;;;2.80;99.90;;;;;;5140670;27;20455;-56
2022/01/26 13:16:04;;;;;;;85.13;36.60;;;2.80;1.00;;;;;;5137000;27;20485;-60
2022/01/26 13:19:03;;;;;;;93.77;36.80;;;2.80;1.00;;;;;;5138144;27;20446;-59
2022/01/26 13:21:44;;;;;;;95.97;41.30;;;2.90;1.00;;;;;;5137461;27;20557;-59
2022/01/26 13:24:29;;;;;;;78.53;35.13;;;2.90;1.00;;;;;;5134321;27;20755;-59
2022/01/26 13:27:05;;;;;;;76.07;34.90;;;2.90;1.00;;;;;;5138717;27;20944;-57
2022/01/26 13:29:47;;;;;;;82.60;35.27;;;2.80;99.90;;;;;;5138153;27;20541;-59
2022/01/26 13:32:47;;;;;;;89.33;32.70;;;2.80;1.00;;;;;;5139140;27;20898;-59
2022/01/26 13:35:45;;;;;;;86.47;35.83;;;2.60;1.00;;;;;;5137651;27;20465;-60
2022/01/26 13:38:24;;;;;;;77.50;32.10;;;2.50;65.80;;;;;;5135009;27;20537;-59
2022/01/26 13:41:04;;;;;;;87.93;34.80;;;2.50;99.90;;;;;;5139784;27;20801;-59
2022/01/26 13:52:01;;;;;;;77.53;31.50;;;2.40;59.50;;;;;;5138439;27;20442;-60
2022/01/26 13:57:40;;;;;;;66.73;29.53;;;2.50;1.00;;;;;;5135726;27;20434;-56
2022/01/26 14:00:10;;;;;;;61.87;28.43;;;2.50;22.90;;;;;;5119696;27;20451;-59
2022/01/26 14:02:38;;;;;;;67.10;28.70;;;2.50;1.00;;;;;;5138828;27;20433;-56
2022/01/26 14:05:12;;;;;;;61.97;27.80;;;2.50;99.90;;;;;;5138822;27;20481;-60
2022/01/26 14:07:43;;;;;;;69.03;30.63;;;2.30;1.00;;;;;;5138821;27;20486;-59
2022/01/26 14:10:15;;;;;;;67.23;28.97;;;2.30;1.00;;;;;;5138104;27;20549;-56
2022/01/26 14:12:47;;;;;;;55.03;27.30;;;2.30;99.90;;;;;;5138662;27;20451;-58
2022/01/26 14:15:19;;;;;;;67.03;27.77;;;2.40;1.00;;;;;;5139583;27;20462;-59
2022/01/26 14:18:00;;;;;;;66.20;28.53;;;2.50;99.90;;;;;;5138664;27;20440;-59
2022/01/26 14:20:47;;;;;;;72.07;29.50;;;2.60;1.00;;;;;;5138757;27;20433;-60
2022/01/26 14:26:01;;;;;;;72.33;32.33;;;2.70;99.90;;;;;;5087253;28;20436;-59
2022/01/26 14:28:33;;;;;;;65.77;31.13;;;2.60;99.90;;;;;;5118641;28;20461;-60
2022/01/26 14:31:21;;;;;;;72.17;33.23;;;2.70;99.90;;;;;;5132331;27;20433;-59
2022/01/26 14:34:21;;;;;;;77.10;34.10;;;2.70;99.90;;;;;;5139733;27;20463;-61
2022/01/26 14:40:06;;;;;;;75.50;30.80;;;2.60;99.90;;;;;;5104694;27;20428;-61
2022/01/26 14:51:14;;;;;;;67.80;31.87;;;2.70;1.00;;;;;;5138219;27;20572;-61